Time;durP1;ratioP1;P1;durP2;ratioP2;P2;SDS_P1;SDS_P2;PMS_P1;PMS_P2;Temp;Humidity;BMP_temperature;BMP_pressure;BME280_temperature;BME280_humidity;BME280_pressure;Samples;Min_cycle;Max_cycle;Signal;HPM_P1;HPM_P2
2022/10/22 00:01:54;;;;;;;5.1;2.7;;;;;;;;;;;;;
2022/10/22 00:04:19;;;;;;;4.9;2.8;;;;;;;;;;;;;
2022/10/22 00:06:46;;;;;;;4.8;2.8;;;;;;;;;;;;;
2022/10/22 00:09:11;;;;;;;3.6;2.8;;;;;;;;;;;;;
2022/10/22 00:11:38;;;;;;;4;3;;;;;;;;;;;;;
2022/10/22 00:14:04;;;;;;;4.8;2.9;;;;;;;;;;;;;
2022/10/22 00:16:30;;;;;;;3.2;2.3;;;;;;;;;;;;;
2022/10/22 00:18:55;;;;;;;5.3;3.3;;;;;;;;;;;;;
2022/10/22 00:21:21;;;;;;;5.8;3.2;;;;;;;;;;;;;
2022/10/22 00:23:46;;;;;;;4.4;2.6;;;;;;;;;;;;;
2022/10/22 00:26:12;;;;;;;5;2.9;;;;;;;;;;;;;
2022/10/22 00:28:37;;;;;;;4.9;3.1;;;;;;;;;;;;;
2022/10/22 00:31:02;;;;;;;6.2;3.5;;;;;;;;;;;;;
2022/10/22 00:33:28;;;;;;;5.6;3.3;;;;;;;;;;;;;
2022/10/22 00:35:53;;;;;;;9;3.3;;;;;;;;;;;;;
2022/10/22 00:38:21;;;;;;;5.7;3.3;;;;;;;;;;;;;
2022/10/22 00:40:46;;;;;;;5.1;3.2;;;;;;;;;;;;;
2022/10/22 00:43:12;;;;;;;4.7;3.3;;;;;;;;;;;;;
2022/10/22 00:48:03;;;;;;;6.2;3.2;;;;;;;;;;;;;
2022/10/22 00:50:29;;;;;;;9.8;3.2;;;;;;;;;;;;;
2022/10/22 00:52:54;;;;;;;4.5;3.3;;;;;;;;;;;;;
2022/10/22 00:55:20;;;;;;;6.1;3.6;;;;;;;;;;;;;
2022/10/22 00:57:45;;;;;;;7.5;3.5;;;;;;;;;;;;;
2022/10/22 01:00:10;;;;;;;6.9;3.3;;;;;;;;;;;;;
2022/10/22 01:02:35;;;;;;;4.4;2.8;;;;;;;;;;;;;
2022/10/22 01:05:01;;;;;;;5;3.3;;;;;;;;;;;;;
2022/10/22 01:07:27;;;;;;;4.9;3.2;;;;;;;;;;;;;
2022/10/22 01:09:52;;;;;;;4.8;2.7;;;;;;;;;;;;;
2022/10/22 01:12:17;;;;;;;4.6;2.8;;;;;;;;;;;;;
2022/10/22 01:14:42;;;;;;;4.6;3;;;;;;;;;;;;;
2022/10/22 01:17:07;;;;;;;5.2;3;;;;;;;;;;;;;
2022/10/22 01:19:32;;;;;;;4;2.8;;;;;;;;;;;;;
2022/10/22 01:21:57;;;;;;;4.6;3.1;;;;;;;;;;;;;
2022/10/22 01:24:24;;;;;;;4.7;3.2;;;;;;;;;;;;;
2022/10/22 01:27:05;;;;;;;5.5;2.9;;;;;;;;;;;;;
2022/10/22 01:29:30;;;;;;;3.5;3;;;;;;;;;;;;;
2022/10/22 01:31:55;;;;;;;8.4;3.3;;;;;;;;;;;;;
2022/10/22 01:34:21;;;;;;;6.4;3.5;;;;;;;;;;;;;
2022/10/22 01:36:46;;;;;;;5.3;3.1;;;;;;;;;;;;;
2022/10/22 01:39:12;;;;;;;6.9;3.2;;;;;;;;;;;;;
2022/10/22 01:41:37;;;;;;;6.5;3;;;;;;;;;;;;;
2022/10/22 01:44:04;;;;;;;6.2;3.3;;;;;;;;;;;;;
2022/10/22 01:46:29;;;;;;;5.7;3;;;;;;;;;;;;;
2022/10/22 01:48:54;;;;;;;6.2;2.9;;;;;;;;;;;;;
2022/10/22 01:51:19;;;;;;;4.3;3;;;;;;;;;;;;;
2022/10/22 01:53:45;;;;;;;5;2.7;;;;;;;;;;;;;
2022/10/22 01:56:12;;;;;;;5.5;2.7;;;;;;;;;;;;;
2022/10/22 01:58:37;;;;;;;5.1;2.8;;;;;;;;;;;;;
2022/10/22 02:01:02;;;;;;;4;2.6;;;;;;;;;;;;;
2022/10/22 02:03:27;;;;;;;4.7;2.8;;;;;;;;;;;;;
2022/10/22 02:05:52;;;;;;;5.4;3.1;;;;;;;;;;;;;
2022/10/22 02:08:17;;;;;;;5.1;2.8;;;;;;;;;;;;;
2022/10/22 02:10:43;;;;;;;6.7;3.3;;;;;;;;;;;;;
2022/10/22 02:13:08;;;;;;;4.2;2.7;;;;;;;;;;;;;
2022/10/22 02:15:39;;;;;;;5.3;2.8;;;;;;;;;;;;;
2022/10/22 02:18:04;;;;;;;5.3;3.3;;;;;;;;;;;;;
2022/10/22 02:20:29;;;;;;;4.3;2.7;;;;;;;;;;;;;
2022/10/22 02:22:55;;;;;;;5.2;3.2;;;;;;;;;;;;;
2022/10/22 02:25:20;;;;;;;7;2.8;;;;;;;;;;;;;
2022/10/22 02:27:46;;;;;;;4.7;3.3;;;;;;;;;;;;;
2022/10/22 02:30:12;;;;;;;4.2;2.7;;;;;;;;;;;;;
2022/10/22 02:32:37;;;;;;;4.5;2.9;;;;;;;;;;;;;
2022/10/22 02:35:02;;;;;;;5.3;3.2;;;;;;;;;;;;;
2022/10/22 02:37:30;;;;;;;4.9;2.9;;;;;;;;;;;;;
2022/10/22 02:39:55;;;;;;;6;3.3;;;;;;;;;;;;;
2022/10/22 02:42:20;;;;;;;4.9;3;;;;;;;;;;;;;
2022/10/22 02:44:46;;;;;;;5.7;3.3;;;;;;;;;;;;;
2022/10/22 02:47:11;;;;;;;4.5;2.8;;;;;;;;;;;;;
2022/10/22 02:49:36;;;;;;;5.3;2.9;;;;;;;;;;;;;
2022/10/22 02:52:01;;;;;;;4.6;3.2;;;;;;;;;;;;;
2022/10/22 02:54:26;;;;;;;5.9;3.2;;;;;;;;;;;;;
2022/10/22 02:56:52;;;;;;;4.3;3.2;;;;;;;;;;;;;
2022/10/22 02:59:17;;;;;;;5.3;3.2;;;;;;;;;;;;;
2022/10/22 03:01:45;;;;;;;4.3;2.8;;;;;;;;;;;;;
2022/10/22 03:04:10;;;;;;;7.6;3.3;;;;;;;;;;;;;
2022/10/22 03:06:35;;;;;;;5.7;3.8;;;;;;;;;;;;;
2022/10/22 03:09:00;;;;;;;4.7;3.5;;;;;;;;;;;;;
2022/10/22 03:11:26;;;;;;;4;3;;;;;;;;;;;;;
2022/10/22 03:13:51;;;;;;;4;2.5;;;;;;;;;;;;;
2022/10/22 03:16:16;;;;;;;5.1;2.5;;;;;;;;;;;;;
2022/10/22 03:18:42;;;;;;;3.4;2.4;;;;;;;;;;;;;
2022/10/22 03:21:08;;;;;;;4.7;2.5;;;;;;;;;;;;;
2022/10/22 03:23:33;;;;;;;3.5;2.5;;;;;;;;;;;;;
2022/10/22 03:26:00;;;;;;;3.7;2.2;;;;;;;;;;;;;
2022/10/22 03:28:25;;;;;;;4.8;2.7;;;;;;;;;;;;;
2022/10/22 03:30:51;;;;;;;3.3;2.3;;;;;;;;;;;;;
2022/10/22 03:33:16;;;;;;;3.2;2.5;;;;;;;;;;;;;
2022/10/22 03:35:41;;;;;;;3.5;2.4;;;;;;;;;;;;;
2022/10/22 03:38:07;;;;;;;3.8;2.4;;;;;;;;;;;;;
2022/10/22 03:40:32;;;;;;;3.2;2.9;;;;;;;;;;;;;
2022/10/22 03:42:58;;;;;;;4.8;2.9;;;;;;;;;;;;;
2022/10/22 03:45:23;;;;;;;3.5;2.5;;;;;;;;;;;;;
2022/10/22 03:47:50;;;;;;;4.3;2.7;;;;;;;;;;;;;
2022/10/22 03:50:16;;;;;;;6.1;2.5;;;;;;;;;;;;;
2022/10/22 03:52:42;;;;;;;4.7;2.7;;;;;;;;;;;;;
2022/10/22 03:55:07;;;;;;;3.9;2.2;;;;;;;;;;;;;
2022/10/22 03:57:33;;;;;;;5.8;3;;;;;;;;;;;;;
2022/10/22 03:59:58;;;;;;;3.9;2.6;;;;;;;;;;;;;
2022/10/22 04:02:32;;;;;;;3.4;2.3;;;;;;;15.08;97.5166;937.7395;;;;
2022/10/22 04:05:03;;;;;;;2;1.7;;;;;;;15.03;98.39551;937.8129;;;;
2022/10/22 04:07:28;;;;;;;4.3;1.4;;;;;;;15.01;98.19336;937.8384;;;;
2022/10/22 04:09:57;;;;;;;3.6;1.7;;;;;;;15.05;98.07422;937.8217;;;;
2022/10/22 04:17:20;;;;;;;3.1;1.7;;;;;;;14.95;98.29199;937.8206;;;;
2022/10/22 04:19:46;;;;;;;1.8;1.6;;;;;;;14.91;97.29395;937.7952;;;;
2022/10/22 04:22:17;;;;;;;2.1;1.3;;;;;;;14.9;97.52246;937.824;;;;
2022/10/22 04:24:49;;;;;;;2;1.3;;;;;;;14.81;97.33008;937.8117;;;;
2022/10/22 04:27:18;;;;;;;2.4;1.4;;;;;;;14.83;97.52051;937.7942;;;;
2022/10/22 04:29:49;;;;;;;2.9;1.9;;;;;;;14.72;97.12305;937.7042;;;;
2022/10/22 04:32:14;;;;;;;4.3;2.1;;;;;;;14.52;97.35742;937.6403;;;;
2022/10/22 04:34:40;;;;;;;2.1;1.7;;;;;;;14.48;97.02441;937.6736;;;;
2022/10/22 04:37:05;;;;;;;2.4;1.4;;;;;;;14.54;97.81055;937.6234;;;;
2022/10/22 04:39:34;;;;;;;1.2;0.9;;;;;;;14.46;97.93066;937.5879;;;;
2022/10/22 04:42:04;;;;;;;1.9;1.5;;;;;;;14.45;97.74414;937.5607;;;;
2022/10/22 04:44:29;;;;;;;2.2;0.9;;;;;;;14.43;97.02637;937.5758;;;;
2022/10/22 04:46:54;;;;;;;0.7;0.6;;;;;;;14.43;96.93359;937.5945;;;;
2022/10/22 04:49:22;;;;;;;1.3;0.6;;;;;;;14.43;95.50586;937.6295;;;;
2022/10/22 04:51:47;;;;;;;1.4;0.9;;;;;;;14.3;95.72949;937.6516;;;;
2022/10/22 04:54:13;;;;;;;0.9;0.7;;;;;;;14.33;96.42578;937.6707;;;;
2022/10/22 04:57:10;;;;;;;1.3;1;;;;;;;14.31;95.7793;937.6716;;;;
2022/10/22 04:59:37;;;;;;;0.8;0.7;;;;;;;14.27;96.50684;937.7175;;;;
2022/10/22 05:02:02;;;;;;;1;0.7;;;;;;;14.19;96.87988;937.6375;;;;
2022/10/22 05:04:43;;;;;;;3.6;0.7;;;;;;;14.13;97.36133;937.6923;;;;
2022/10/22 05:07:10;;;;;;;1;0.6;;;;;;;14.21;96.73242;937.647;;;;
2022/10/22 05:09:35;;;;;;;2;0.8;;;;;;;14.26;96.54883;937.6447;;;;
2022/10/22 05:12:02;;;;;;;2.1;0.9;;;;;;;14.3;96.12109;937.6267;;;;
2022/10/22 05:14:27;;;;;;;0.8;0.8;;;;;;;14.29;96.37207;937.5851;;;;
2022/10/22 05:16:52;;;;;;;1;0.8;;;;;;;14.33;96.08105;937.6113;;;;
2022/10/22 05:19:26;;;;;;;1.5;1.3;;;;;;;14.39;96.14258;937.6398;;;;
2022/10/22 05:21:59;;;;;;;1.1;1;;;;;;;14.37;96.23828;937.6584;;;;
2022/10/22 05:24:25;;;;;;;1.7;1.2;;;;;;;14.24;97.75391;937.4149;;;;
2022/10/22 05:26:51;;;;;;;1.3;1;;;;;;;14.23;97.99316;937.423;;;;
2022/10/22 05:29:21;;;;;;;1.5;1.2;;;;;;;14.14;98.62012;937.5377;;;;
2022/10/22 05:31:46;;;;;;;1.9;1.1;;;;;;;13.98;98.79004;937.5455;;;;
2022/10/22 05:34:17;;;;;;;4;1.2;;;;;;;13.9;99.4043;937.5562;;;;
2022/10/22 05:36:49;;;;;;;1.9;1;;;;;;;13.81;99.4873;937.5803;;;;
2022/10/22 05:39:17;;;;;;;2.2;1.6;;;;;;;13.8;99.65625;937.59;;;;
2022/10/22 05:41:42;;;;;;;1.7;1.2;;;;;;;13.73;99.99805;937.6238;;;;
2022/10/22 05:44:13;;;;;;;1.3;1.2;;;;;;;13.76;99.9834;937.7286;;;;
2022/10/22 05:46:44;;;;;;;1.5;1.3;;;;;;;13.75;99.86426;937.775;;;;
2022/10/22 05:51:34;;;;;;;1;0.8;;;;;;;13.62;99.28125;937.8267;;;;
2022/10/22 05:54:04;;;;;;;0.8;0.7;;;;;;;13.67;99.39746;937.7512;;;;
2022/10/22 05:56:33;;;;;;;1.8;0.7;;;;;;;13.62;100;937.7322;;;;
2022/10/22 05:58:58;;;;;;;1.3;1;;;;;;;13.55;100;937.8074;;;;
2022/10/22 06:01:27;;;;;;;1.4;1;;;;;;;13.7;100;937.7816;;;;
2022/10/22 06:03:57;;;;;;;1.9;1.3;;;;;;;13.81;99.10547;937.8636;;;;
2022/10/22 06:06:26;;;;;;;5.1;1.5;;;;;;;13.73;99.29492;937.8672;;;;
2022/10/22 06:08:51;;;;;;;4.5;2.2;;;;;;;13.66;99.87793;937.8881;;;;
2022/10/22 06:11:17;;;;;;;4.1;2.5;;;;;;;13.79;99.38965;937.883;;;;
2022/10/22 06:13:44;;;;;;;3.9;2.6;;;;;;;13.7;99.69043;937.8528;;;;
2022/10/22 06:16:09;;;;;;;3.3;2;;;;;;;13.72;100;937.9152;;;;
2022/10/22 06:18:41;;;;;;;2.9;2.1;;;;;;;13.84;99.43652;938.0095;;;;
2022/10/22 06:21:09;;;;;;;2.1;1.9;;;;;;;13.89;99.34277;938.0614;;;;
2022/10/22 06:23:34;;;;;;;4.5;2.4;;;;;;;13.96;99.26758;938.1716;;;;
2022/10/22 06:26:05;;;;;;;5.7;4.4;;;;;;;14.02;98.69434;938.2156;;;;
2022/10/22 06:28:33;;;;;;;2.6;1.7;;;;;;;13.93;98.12207;938.2678;;;;
2022/10/22 06:30:58;;;;;;;2.1;1.4;;;;;;;13.89;98.73535;938.211;;;;
2022/10/22 06:33:28;;;;;;;3.7;2.5;;;;;;;14.02;98.1543;938.4119;;;;
2022/10/22 06:35:57;;;;;;;2.9;2.2;;;;;;;14.03;97.47656;938.3973;;;;
2022/10/22 06:38:22;;;;;;;5;2.6;;;;;;;13.93;97.82324;938.387;;;;
2022/10/22 06:40:47;;;;;;;3.7;2.4;;;;;;;13.85;98.05762;938.4545;;;;
2022/10/22 06:43:16;;;;;;;3.8;2;;;;;;;13.91;98.25586;938.4631;;;;
2022/10/22 06:45:41;;;;;;;4.1;2.1;;;;;;;13.99;97.80273;938.5245;;;;
2022/10/22 06:48:10;;;;;;;3.3;2.1;;;;;;;14.03;97.43066;938.5447;;;;
2022/10/22 06:50:39;;;;;;;5.2;2.2;;;;;;;14.12;97.29004;938.5251;;;;
2022/10/22 06:53:07;;;;;;;4;2.4;;;;;;;14.14;97.7793;938.5603;;;;
2022/10/22 06:55:32;;;;;;;6;2.6;;;;;;;14.14;97.53516;938.6011;;;;
2022/10/22 06:58:00;;;;;;;4;2.6;;;;;;;14.15;97.48242;938.6683;;;;
2022/10/22 07:00:25;;;;;;;3.5;2.5;;;;;;;14.18;97.47461;938.7211;;;;
2022/10/22 07:02:54;;;;;;;2.8;1.8;;;;;;;14.19;97.51074;938.7747;;;;
2022/10/22 07:05:21;;;;;;;2.1;1.9;;;;;;;14.22;97.33496;938.6964;;;;
2022/10/22 07:07:46;;;;;;;1.6;0.9;;;;;;;14.27;96.85156;938.7715;;;;
2022/10/22 07:10:17;;;;;;;0.7;0.6;;;;;;;14.27;96.63281;938.8404;;;;
2022/10/22 07:12:47;;;;;;;2;1.4;;;;;;;14.16;97.15039;938.9045;;;;
2022/10/22 07:15:12;;;;;;;2.4;1.5;;;;;;;14.19;97.57031;938.9421;;;;
2022/10/22 07:17:41;;;;;;;1.7;1.1;;;;;;;14.18;97.47461;938.9246;;;;
2022/10/22 07:20:15;;;;;;;1.5;1.1;;;;;;;14.06;97.56348;938.9353;;;;
2022/10/22 07:22:39;;;;;;;3.8;3.5;;;;;;;14.11;97.875;938.9175;;;;
2022/10/22 07:25:06;;;;;;;4.5;3.9;;;;;;;14.1;97.71191;938.9777;;;;
2022/10/22 07:27:32;;;;;;;1.7;1.6;;;;;;;14.14;97.51465;939.0519;;;;
2022/10/22 07:30:00;;;;;;;1.3;1.2;;;;;;;14.06;97.61133;939.1579;;;;
2022/10/22 07:32:25;;;;;;;2.9;1.9;;;;;;;13.98;98.09766;939.1962;;;;
2022/10/22 07:35:13;;;;;;;1.5;1.4;;;;;;;13.87;98.55664;939.1716;;;;
2022/10/22 07:37:43;;;;;;;2.7;1.3;;;;;;;13.93;99.27246;939.2644;;;;
2022/10/22 07:40:08;;;;;;;2.2;1.8;;;;;;;14.06;98.72559;939.3133;;;;
2022/10/22 07:42:39;;;;;;;3.3;2.9;;;;;;;14.07;98.4541;939.3436;;;;
2022/10/22 07:45:13;;;;;;;5.6;5;;;;;;;14.04;98.21777;939.2916;;;;
2022/10/22 07:47:39;;;;;;;4.7;4.3;;;;;;;14.12;98.06152;939.2922;;;;
2022/10/22 07:50:11;;;;;;;4.2;3.5;;;;;;;13.92;99.12109;939.3708;;;;
2022/10/22 07:52:43;;;;;;;3.6;3;;;;;;;13.98;99.50391;939.4156;;;;
2022/10/22 07:55:16;;;;;;;3.9;3.3;;;;;;;14.16;98.8291;939.4267;;;;
2022/10/22 07:57:47;;;;;;;4;2.7;;;;;;;14.13;98.44336;939.4844;;;;
2022/10/22 08:00:18;;;;;;;4;2.6;;;;;;;14.23;98.14258;939.5302;;;;
2022/10/22 08:02:43;;;;;;;2.6;2.1;;;;;;;14.3;97.70996;939.5275;;;;
2022/10/22 08:05:17;;;;;;;1.9;1.8;;;;;;;14.32;97.0459;939.5844;;;;
2022/10/22 08:07:41;;;;;;;3.1;2.1;;;;;;;14.27;96.9209;939.6174;;;;
2022/10/22 08:10:09;;;;;;;7.9;6;;;;;;;14.26;97.5752;939.7495;;;;
2022/10/22 08:12:33;;;;;;;17.9;15.8;;;;;;;14.3;97.06543;939.7391;;;;
2022/10/22 08:15:00;;;;;;;8.2;7.2;;;;;;;14.27;96.99023;939.7014;;;;
2022/10/22 08:17:25;;;;;;;5.8;5.3;;;;;;;14.33;96.7373;939.7349;;;;
2022/10/22 08:19:50;;;;;;;4;3.6;;;;;;;14.4;96.62695;939.7364;;;;
2022/10/22 08:22:19;;;;;;;3.6;2.7;;;;;;;14.39;95.79297;939.6434;;;;
2022/10/22 08:24:49;;;;;;;3.5;2.2;;;;;;;14.4;94.93359;939.7252;;;;
2022/10/22 08:27:14;;;;;;;3.7;3.2;;;;;;;14.38;94.70996;939.7043;;;;
2022/10/22 08:29:40;;;;;;;5.1;2.7;;;;;;;14.38;94.90625;939.6883;;;;
2022/10/22 08:32:05;;;;;;;3.5;1.8;;;;;;;14.33;94.7334;939.6213;;;;
2022/10/22 08:34:32;;;;;;;3.6;2.1;;;;;;;14.38;95.30957;939.585;;;;
2022/10/22 08:36:57;;;;;;;2.2;2;;;;;;;14.46;95.4541;939.5508;;;;
2022/10/22 08:39:26;;;;;;;2.8;2;;;;;;;14.55;95.32617;939.613;;;;
2022/10/22 08:41:51;;;;;;;2.7;1.9;;;;;;;14.63;95.16699;939.6916;;;;
2022/10/22 08:44:16;;;;;;;2.3;1.3;;;;;;;14.58;95.64063;939.6537;;;;
2022/10/22 08:47:08;;;;;;;1.5;1;;;;;;;14.61;95.91211;939.7458;;;;
2022/10/22 08:49:35;;;;;;;7;4.4;;;;;;;14.73;95.10938;939.7617;;;;
2022/10/22 08:52:00;;;;;;;5.5;3.5;;;;;;;14.77;94.62207;939.7455;;;;
2022/10/22 08:54:26;;;;;;;3;1.3;;;;;;;14.79;93.7959;939.7326;;;;
2022/10/22 08:56:51;;;;;;;3.1;1.3;;;;;;;14.83;93.55371;939.7647;;;;
2022/10/22 08:59:17;;;;;;;1.1;0.9;;;;;;;14.64;93.07129;939.8575;;;;
2022/10/22 09:01:47;;;;;;;1.6;1.1;;;;;;;14.57;93.19531;939.843;;;;
2022/10/22 09:04:20;;;;;;;0.7;0.7;;;;;;;14.43;92.07227;939.873;;;;
2022/10/22 09:06:44;;;;;;;5.1;4.6;;;;;;;14.45;92.52539;939.8994;;;;
2022/10/22 09:09:16;;;;;;;2.8;2;;;;;;;14.39;91.55762;939.9375;;;;
2022/10/22 09:11:45;;;;;;;1.2;0.9;;;;;;;14.22;92.64844;939.905;;;;
2022/10/22 09:14:10;;;;;;;1;0.9;;;;;;;14.32;93.06152;939.9104;;;;
2022/10/22 09:16:40;;;;;;;2.5;1.3;;;;;;;14.2;94.17578;939.8455;;;;
2022/10/22 09:19:05;;;;;;;2.8;2;;;;;;;14.34;94.66797;939.7894;;;;
2022/10/22 09:21:30;;;;;;;2.9;1.8;;;;;;;14.33;93.61621;939.7374;;;;
2022/10/22 09:23:55;;;;;;;1.9;1.5;;;;;;;14.43;93.10938;939.7486;;;;
2022/10/22 09:26:20;;;;;;;2.7;1.7;;;;;;;14.55;93.57227;939.7132;;;;
2022/10/22 09:28:49;;;;;;;1.7;1.3;;;;;;;14.58;92.71387;939.8148;;;;
2022/10/22 09:31:14;;;;;;;2.4;1.7;;;;;;;14.66;92.7998;939.9471;;;;
2022/10/22 09:33:39;;;;;;;2;1.1;;;;;;;14.68;93.42871;939.9911;;;;
2022/10/22 09:36:08;;;;;;;3.1;1.7;;;;;;;14.54;94.15625;939.9384;;;;
2022/10/22 09:38:33;;;;;;;3.1;1.6;;;;;;;14.5;95.29102;939.9177;;;;
2022/10/22 09:40:58;;;;;;;1.9;1.6;;;;;;;14.44;96.19824;939.9235;;;;
2022/10/22 09:43:25;;;;;;;1;0.9;;;;;;;14.32;96.91992;939.9304;;;;
2022/10/22 09:45:50;;;;;;;2.9;1.6;;;;;;;14.49;96.75;939.9554;;;;
2022/10/22 09:48:15;;;;;;;2.9;1.6;;;;;;;14.65;96.04688;939.8719;;;;
2022/10/22 09:50:43;;;;;;;1.9;1.4;;;;;;;14.69;93.7627;939.8789;;;;
2022/10/22 09:53:08;;;;;;;1.4;1.3;;;;;;;14.81;95.15039;939.8784;;;;
2022/10/22 09:55:40;;;;;;;1.4;1.2;;;;;;;14.89;94.88965;939.912;;;;
2022/10/22 09:58:10;;;;;;;1.1;1;;;;;;;14.92;93.99512;939.8333;;;;
2022/10/22 10:00:35;;;;;;;1.1;0.8;;;;;;;15.07;89.58691;939.8705;;;;
2022/10/22 10:03:03;;;;;;;1.9;1;;;;;;;15.39;90.56543;939.8392;;;;
2022/10/22 10:08:20;;;;;;;0.9;0.7;;;;;;;15.64;84.90918;939.8906;;;;
2022/10/22 10:10:50;;;;;;;1.2;0.7;;;;;;;15.6;84.35938;939.9796;;;;
2022/10/22 10:13:19;;;;;;;1;0.6;;;;;;;15.85;84.78809;939.988;;;;
2022/10/22 10:15:46;;;;;;;0.9;0.6;;;;;;;15.87;83.93555;939.9637;;;;
2022/10/22 10:18:11;;;;;;;1.9;0.9;;;;;;;15.88;84.41309;939.9725;;;;
2022/10/22 10:20:37;;;;;;;0.9;0.9;;;;;;;15.73;83.92285;939.9332;;;;
2022/10/22 10:23:01;;;;;;;1.4;1.1;;;;;;;15.74;83.9707;939.9749;;;;
2022/10/22 10:25:27;;;;;;;0.8;0.8;;;;;;;15.89;82.96875;940.0134;;;;
2022/10/22 10:27:52;;;;;;;1.9;0.8;;;;;;;16.04;81.18359;939.932;;;;
2022/10/22 10:30:17;;;;;;;0.8;0.8;;;;;;;16.17;80.88184;939.8328;;;;
2022/10/22 10:32:42;;;;;;;1.5;0.8;;;;;;;16.57;81.99902;939.884;;;;
2022/10/22 10:35:11;;;;;;;0.8;0.8;;;;;;;16.84;80.77637;939.9075;;;;
2022/10/22 10:37:36;;;;;;;1;0.7;;;;;;;17.32;78.97461;939.876;;;;
2022/10/22 10:40:05;;;;;;;0.8;0.8;;;;;;;17.58;77.30273;939.9492;;;;
2022/10/22 10:42:34;;;;;;;1;0.7;;;;;;;17.57;76.94141;939.9604;;;;
2022/10/22 10:44:59;;;;;;;0.7;0.7;;;;;;;17.81;78.6543;939.9253;;;;
2022/10/22 10:47:25;;;;;;;0.8;0.8;;;;;;;17.91;74.67871;939.9047;;;;
2022/10/22 10:49:50;;;;;;;0.8;0.7;;;;;;;17.96;72.86523;939.8192;;;;
2022/10/22 10:52:15;;;;;;;1.4;0.8;;;;;;;18.1;73.99121;939.9009;;;;
2022/10/22 10:54:40;;;;;;;0.8;0.8;;;;;;;18.14;73.32324;939.8561;;;;
2022/10/22 10:57:07;;;;;;;0.5;0.5;;;;;;;18.1;74.59473;939.8334;;;;
2022/10/22 10:59:35;;;;;;;1;0.6;;;;;;;18.05;71.78613;939.8825;;;;
2022/10/22 11:02:05;;;;;;;1;0.6;;;;;;;18.03;74.03809;939.7917;;;;
2022/10/22 11:04:31;;;;;;;2;0.5;;;;;;;17.91;73.07813;939.783;;;;
2022/10/22 11:06:57;;;;;;;0.8;0.6;;;;;;;18.21;75.2627;939.8016;;;;
2022/10/22 11:09:22;;;;;;;1.5;0.8;;;;;;;18.12;71.58887;939.8652;;;;
2022/10/22 11:11:47;;;;;;;2.3;1.1;;;;;;;18.08;74.42773;939.8345;;;;
2022/10/22 11:14:12;;;;;;;2.5;2;;;;;;;18.43;73.55762;939.8893;;;;
2022/10/22 11:16:38;;;;;;;1.3;1.1;;;;;;;18.31;71.3877;939.8155;;;;
2022/10/22 11:19:04;;;;;;;1.6;0.6;;;;;;;18.25;70.08887;939.7924;;;;
2022/10/22 11:21:28;;;;;;;1.1;0.5;;;;;;;18.51;71.36328;939.8668;;;;
2022/10/22 11:23:53;;;;;;;1.4;0.7;;;;;;;18.85;72.45313;939.8636;;;;
2022/10/22 11:26:18;;;;;;;1.2;0.7;;;;;;;18.97;72.8916;939.8766;;;;
2022/10/22 11:28:44;;;;;;;1.4;0.6;;;;;;;19.1;71.0957;939.7896;;;;
2022/10/22 11:31:09;;;;;;;3.6;1;;;;;;;19.59;70.17285;939.8128;;;;
2022/10/22 11:33:34;;;;;;;1.3;0.7;;;;;;;20.69;64.5752;939.785;;;;
2022/10/22 11:35:59;;;;;;;0.6;0.5;;;;;;;21.41;59.26074;939.7372;;;;
2022/10/22 11:38:53;;;;;;;0.7;0.5;;;;;;;22.05;58.67773;939.7302;;;;
2022/10/22 11:41:18;;;;;;;0.6;0.6;;;;;;;21.98;57.97852;939.7713;;;;
2022/10/22 11:43:44;;;;;;;0.4;0.4;;;;;;;23.09;56.37207;939.6813;;;;
2022/10/22 11:46:09;;;;;;;1.5;0.7;;;;;;;22.96;53.43066;939.6851;;;;
2022/10/22 11:48:34;;;;;;;0.8;0.8;;;;;;;23.65;51.52637;939.7115;;;;
2022/10/22 11:50:59;;;;;;;2.1;0.8;;;;;;;25.16;48.35938;939.6611;;;;
2022/10/22 11:53:24;;;;;;;0.9;0.7;;;;;;;25.51;46.03516;939.6708;;;;
2022/10/22 11:55:50;;;;;;;0.9;0.9;;;;;;;27.65;43.87012;939.7032;;;;
2022/10/22 11:58:15;;;;;;;2.5;1.2;;;;;;;30.07;39.60742;939.5898;;;;
2022/10/22 12:00:40;;;;;;;0.6;0.6;;;;;;;30.94;35.60547;939.5323;;;;
2022/10/22 12:03:15;;;;;;;0.5;0.4;;;;;;;31.71;31.79785;939.6035;;;;
2022/10/22 12:05:42;;;;;;;1.3;0.5;;;;;;;32.12;32.11426;939.6153;;;;
2022/10/22 12:08:07;;;;;;;0.7;0.4;;;;;;;33.34;30.72266;939.4965;;;;
2022/10/22 12:10:38;;;;;;;0.5;0.5;;;;;;;34.41;28.37305;939.5669;;;;
2022/10/22 12:13:03;;;;;;;1.6;0.3;;;;;;;35.94;25.05859;939.6033;;;;
2022/10/22 12:15:32;;;;;;;0.6;0.5;;;;;;;36.05;26.14063;939.5566;;;;
2022/10/22 12:18:00;;;;;;;0.4;0.4;;;;;;;36.93;24.8457;939.5251;;;;
2022/10/22 12:20:25;;;;;;;0.5;0.4;;;;;;;37.31;24.90332;939.4817;;;;
2022/10/22 12:22:50;;;;;;;0.6;0.6;;;;;;;37.55;23.48535;939.4439;;;;
2022/10/22 12:25:21;;;;;;;0.5;0.5;;;;;;;37.27;23.45898;939.4025;;;;
2022/10/22 12:27:46;;;;;;;0.6;0.5;;;;;;;36.05;24.35156;939.3582;;;;
2022/10/22 12:30:12;;;;;;;0.3;0.3;;;;;;;35.84;25.83887;939.3505;;;;
2022/10/22 12:32:37;;;;;;;0.4;0.4;;;;;;;37.44;24.07324;939.2653;;;;
2022/10/22 12:35:02;;;;;;;1;0.5;;;;;;;36.96;23.50293;939.2899;;;;
2022/10/22 12:37:27;;;;;;;0.4;0.4;;;;;;;36.5;27.36426;939.2464;;;;
2022/10/22 12:39:54;;;;;;;0.6;0.3;;;;;;;36.25;26.3584;939.1412;;;;
2022/10/22 12:42:23;;;;;;;1;0.3;;;;;;;37.24;23.27539;939.1631;;;;
2022/10/22 12:44:48;;;;;;;0.8;0.8;;;;;;;36.2;24.54102;939.1609;;;;
2022/10/22 12:47:15;;;;;;;0.5;0.5;;;;;;;36.77;24.49805;939.1855;;;;
2022/10/22 12:49:40;;;;;;;0.9;0.4;;;;;;;33.64;27.38574;939.1119;;;;
2022/10/22 12:52:07;;;;;;;0.4;0.4;;;;;;;31.45;30.79785;939.1005;;;;
2022/10/22 12:54:32;;;;;;;0.8;0.4;;;;;;;33.19;29.1377;939.0256;;;;
2022/10/22 12:57:01;;;;;;;0.9;0.8;;;;;;;33.74;28.18652;939.0825;;;;
2022/10/22 12:59:26;;;;;;;0.5;0.5;;;;;;;30.83;33.29004;939.0748;;;;
2022/10/22 13:01:51;;;;;;;1.6;0.5;;;;;;;31.7;32.45605;939.1072;;;;
2022/10/22 13:04:16;;;;;;;1.4;0.5;;;;;;;29.26;37.81934;939.1102;;;;
2022/10/22 13:06:43;;;;;;;0.7;0.7;;;;;;;27.48;42.71387;939.0818;;;;
2022/10/22 13:09:10;;;;;;;0.7;0.7;;;;;;;26.03;42.61133;939.0934;;;;
2022/10/22 13:11:35;;;;;;;0.7;0.6;;;;;;;27.7;42.03418;939.0366;;;;
2022/10/22 13:14:03;;;;;;;1;1;;;;;;;28.12;38.73535;939.0133;;;;
2022/10/22 13:16:32;;;;;;;2.1;0.7;;;;;;;26.98;38.77832;938.9777;;;;
2022/10/22 13:18:57;;;;;;;1.4;0.6;;;;;;;26.79;41.96094;938.986;;;;
2022/10/22 13:21:22;;;;;;;0.5;0.5;;;;;;;26.63;42.21875;938.9171;;;;
2022/10/22 13:23:47;;;;;;;2.1;0.4;;;;;;;27.91;37.08887;938.9819;;;;
2022/10/22 13:26:12;;;;;;;0.4;0.4;;;;;;;28.17;36.9209;938.9589;;;;
2022/10/22 13:28:37;;;;;;;0.7;0.7;;;;;;;30.75;34.00098;938.928;;;;
2022/10/22 13:31:03;;;;;;;1.1;0.6;;;;;;;33.33;29.96484;938.9299;;;;
2022/10/22 13:33:27;;;;;;;0.5;0.5;;;;;;;31.77;31.875;938.9874;;;;
2022/10/22 13:35:52;;;;;;;0.6;0.6;;;;;;;33.24;28.64844;938.9278;;;;
2022/10/22 13:38:17;;;;;;;0.9;0.8;;;;;;;33.08;29.33496;938.9342;;;;
2022/10/22 13:40:42;;;;;;;1.3;0.9;;;;;;;33.54;28.69043;938.9306;;;;
2022/10/22 13:43:11;;;;;;;1.2;0.8;;;;;;;34.4;27.41992;938.8217;;;;
2022/10/22 13:45:36;;;;;;;1.2;1;;;;;;;35.85;25.47656;938.9084;;;;
2022/10/22 13:48:05;;;;;;;0.6;0.6;;;;;;;35.35;25.83496;938.9692;;;;
2022/10/22 13:50:30;;;;;;;0.6;0.4;;;;;;;36.59;23.58105;938.9796;;;;
2022/10/22 13:52:58;;;;;;;0.9;0.7;;;;;;;34.51;26.98047;938.9176;;;;
2022/10/22 13:55:24;;;;;;;1.1;0.5;;;;;;;32.54;29.27637;938.9341;;;;
2022/10/22 13:57:53;;;;;;;0.8;0.6;;;;;;;33.97;28.34473;938.8895;;;;
2022/10/22 14:00:21;;;;;;;2;0.8;;;;;;;33.13;28.08887;938.8395;;;;
2022/10/22 14:02:46;;;;;;;0.7;0.5;;;;;;;33.86;29.28906;938.8293;;;;
2022/10/22 14:05:12;;;;;;;0.5;0.5;;;;;;;34.47;27.26758;938.8145;;;;
2022/10/22 14:07:39;;;;;;;0.8;0.5;;;;;;;33.55;29.17285;938.8742;;;;
2022/10/22 14:10:04;;;;;;;1;0.5;;;;;;;32.6;30.73242;938.8757;;;;
2022/10/22 14:12:32;;;;;;;0.8;0.5;;;;;;;32.04;30.68262;938.8391;;;;
2022/10/22 14:14:57;;;;;;;0.4;0.4;;;;;;;30.61;32.27051;938.8597;;;;
2022/10/22 14:17:24;;;;;;;0.5;0.5;;;;;;;30.07;33.52051;938.8801;;;;
2022/10/22 14:19:49;;;;;;;1.1;0.7;;;;;;;30.27;32.10254;938.858;;;;
2022/10/22 14:22:15;;;;;;;0.6;0.6;;;;;;;30.95;31.97168;938.884;;;;
2022/10/22 14:24:42;;;;;;;0.5;0.4;;;;;;;32.16;30.53418;938.9656;;;;
2022/10/22 14:27:07;;;;;;;0.4;0.4;;;;;;;32.97;31.58594;938.9709;;;;
2022/10/22 14:29:34;;;;;;;0.5;0.5;;;;;;;33.73;30.74805;938.9991;;;;
2022/10/22 14:31:59;;;;;;;1.4;0.6;;;;;;;34.11;29.70215;939.0181;;;;
2022/10/22 14:34:29;;;;;;;0.6;0.6;;;;;;;34.61;29.33691;939.0154;;;;
2022/10/22 14:37:09;;;;;;;1.6;0.7;;;;;;;34.81;29.16895;939.0282;;;;
2022/10/22 14:39:38;;;;;;;1.3;1;;;;;;;33.68;30.74512;939.0844;;;;
2022/10/22 14:42:08;;;;;;;1.4;0.6;;;;;;;31.58;33.48828;939.0411;;;;
2022/10/22 14:44:33;;;;;;;1.7;1.5;;;;;;;31.13;34.19727;939.1122;;;;
2022/10/22 14:46:59;;;;;;;1.3;1.2;;;;;;;31.71;33.46289;939.0912;;;;
2022/10/22 14:49:24;;;;;;;1.5;1;;;;;;;31.56;33.23535;939.1506;;;;
2022/10/22 14:51:55;;;;;;;1.3;1.1;;;;;;;30;35.20898;939.139;;;;
2022/10/22 14:54:20;;;;;;;1.5;1.3;;;;;;;29.59;36.03613;939.1386;;;;
2022/10/22 14:56:49;;;;;;;0.9;0.7;;;;;;;29.1;36.61621;939.1015;;;;
2022/10/22 14:59:14;;;;;;;2;0.7;;;;;;;29.36;37.76953;939.0628;;;;
2022/10/22 15:01:44;;;;;;;1.1;0.4;;;;;;;28.79;38.95996;939.1044;;;;
2022/10/22 15:04:09;;;;;;;1.8;0.7;;;;;;;28.23;39.84961;939.125;;;;
2022/10/22 15:06:35;;;;;;;0.6;0.6;;;;;;;27.32;40.82422;939.1589;;;;
2022/10/22 15:09:00;;;;;;;0.8;0.8;;;;;;;26.04;43.32227;939.0978;;;;
2022/10/22 15:11:26;;;;;;;0.5;0.5;;;;;;;24.81;46.78809;939.0891;;;;
2022/10/22 15:13:51;;;;;;;1.1;0.4;;;;;;;23.81;49.47363;939.0864;;;;
2022/10/22 15:16:17;;;;;;;0.5;0.4;;;;;;;22.99;51.51953;939.1252;;;;
2022/10/22 15:18:45;;;;;;;1.7;0.4;;;;;;;22.18;54.61426;939.2101;;;;
2022/10/22 15:21:10;;;;;;;1.1;0.5;;;;;;;21.43;56.81738;939.2151;;;;
2022/10/22 15:23:38;;;;;;;0.7;0.5;;;;;;;20.72;58.86426;939.1819;;;;
2022/10/22 15:26:01;;;;;;;0.3;0.3;;;;;;;20.22;60.45508;939.231;;;;
2022/10/22 15:28:30;;;;;;;1.5;0.6;;;;;;;19.89;61.74121;939.2769;;;;
2022/10/22 15:30:55;;;;;;;1.7;0.6;;;;;;;18.94;65.55371;939.343;;;;
2022/10/22 15:33:22;;;;;;;1.2;0.3;;;;;;;18.68;66.67773;939.39;;;;
2022/10/22 15:35:47;;;;;;;1.4;0.6;;;;;;;18.32;69.39063;939.3484;;;;
2022/10/22 15:38:13;;;;;;;0.9;0.4;;;;;;;18.11;70.53027;939.46;;;;
2022/10/22 15:40:38;;;;;;;0.6;0.6;;;;;;;18;70.50098;939.4269;;;;
2022/10/22 15:43:07;;;;;;;5.1;4.1;;;;;;;17.75;72.30664;939.4913;;;;
2022/10/22 15:45:32;;;;;;;1.2;1;;;;;;;17.24;74.42676;939.4908;;;;
2022/10/22 15:47:57;;;;;;;1.5;0.9;;;;;;;17.08;76.43848;939.5853;;;;
2022/10/22 15:50:27;;;;;;;1;0.9;;;;;;;17.11;75.6084;939.6541;;;;
2022/10/22 15:52:53;;;;;;;2.6;1.8;;;;;;;17.02;74.96875;939.6714;;;;